الصفحة الرئيسية
METAR-TAF:

METAR-TAF

مطار :

نوميا, نيو كاليدونيا

دائرة عرض: 22-15-30S, خط طول: 166-28-22E, ارتفاع: 3 متر

METAR: مفقودة

زمن: 12:21 (01:21 UTC)

توقعات

تاريخ ووقت الإصدار 8ساعات و 21 دقيقة قبل الساعة 17:00UTC
التوقعات صالحة من19 الساعة 18 UTC إلى 20 الساعة 18 UTC
ريح 2 عقدةمن اتجاهات متغيرة
الرؤية 10 كم أو أكثر
غيوم متفرقة على ارتفاع 3000 قدم
غيوم متفرقة على ارتفاع 4000 قدم
نظرية الاحتمالات 30% :
مؤقت
من 19 الساعة 18 UTC إلى 19 الساعة 24 UTC
غيوم مفككة على ارتفاع 1400 قدم
زخات من المطر
أصبح
من 19 الساعة 22 UTC إلى 19 الساعة 24 UTC
ريح 13 عقدة من الغرب/الجنوب الغربي
أصبح
من 20 الساعة 10 UTC إلى 20 الساعة 12 UTC
ريح 2 عقدةمن اتجاهات متغيرة

TAF: NWWM 191700Z 1918/2018 VRB02KT 9999 SCT030 SCT040 PROB30 TEMPO 1918/1924 SHRA BKN014 BECMG 1922/1924 25013KT BECMG 2010/2012 VRB02KT

أرصاد الطقس والتوقعات من أكثر من 4000 مطار (تقارير الطقس للمطار METAR والتنبؤ بالطقس بالمطارTAF).

المحطات المتاحة هي النقط الصفراء والحمراء على الخريطة.

حرك المؤشر فوق النقطة لمعرفة اسم المحطة.

ثم انقر لمعرفة أرصاد وتوقعات الطقس.

لتغيير الخارطة: اضغط على الأزرار الخضراء مع رمز الصليب الأسود للتكبير. على الزر الأخضر مع شرطة للتصغير، أو على الأسهم الخضراء للخرائط المجاورة.


METAR-TAF: